Time;durP1;ratioP1;P1;durP2;ratioP2;P2;SDS_P1;SDS_P2;PMS_P1;PMS_P2;Temp;Humidity;BMP_temperature;BMP_pressure;BME280_temperature;BME280_humidity;BME280_pressure;Samples;Min_cycle;Max_cycle;Signal;HPM_P1;HPM_P2
2023/07/15 00:00:14;;;;;;;;;1.80;1.00;;;;;;;;5119532;27;45372;-41
2023/07/15 00:02:40;;;;;;;;;1.20;1.20;;;;;;;;5119611;27;45342;-43
2023/07/15 00:05:15;;;;;;;;;1.20;1.20;;;;;;;;5119827;27;45536;-42
2023/07/15 00:07:40;;;;;;;;;3.40;2.00;;;;;;;;5119216;27;45368;-43
2023/07/15 00:10:06;;;;;;;;;1.75;1.50;;;;;;;;5119540;27;45324;-42
2023/07/15 00:12:33;;;;;;;;;6.00;3.00;;;;;;;;5119824;27;45400;-43
2023/07/15 00:14:58;;;;;;;;;2.00;1.80;;;;;;;;5119739;27;45487;-41
2023/07/15 00:17:23;;;;;;;;;3.00;1.25;;;;;;;;5119508;27;46779;-42
2023/07/15 00:19:49;;;;;;;;;0.00;0.00;;;;;;;;5119463;27;45210;-43
2023/07/15 00:22:14;;;;;;;;;1.00;1.00;;;;;;;;5119432;27;45259;-43
2023/07/15 00:24:39;;;;;;;;;2.25;2.25;;;;;;;;5119788;27;45357;-43
2023/07/15 00:27:04;;;;;;;;;2.00;2.00;;;;;;;;5119064;27;46083;-43
2023/07/15 00:29:30;;;;;;;;;2.00;2.00;;;;;;;;5118860;27;45431;-44
2023/07/15 00:31:57;;;;;;;;;1.75;1.50;;;;;;;;5118370;27;45172;-44
2023/07/15 00:34:22;;;;;;;;;1.00;1.00;;;;;;;;5119457;27;45400;-42
2023/07/15 00:36:47;;;;;;;;;1.00;1.00;;;;;;;;5118997;27;46119;-44
2023/07/15 00:39:13;;;;;;;;;2.00;2.00;;;;;;;;5118787;27;45397;-43
2023/07/15 00:41:38;;;;;;;;;1.50;1.50;;;;;;;;5119312;27;45369;-43
2023/07/15 00:44:05;;;;;;;;;1.00;1.00;;;;;;;;5119105;27;45484;-43
2023/07/15 00:46:43;;;;;;;;;2.00;2.00;;;;;;;;5117494;27;45694;-43
2023/07/15 00:49:22;;;;;;;;;1.00;1.00;;;;;;;;5118973;27;45191;-44
2023/07/15 00:51:54;;;;;;;;;1.80;1.40;;;;;;;;5119011;27;45404;-45
2023/07/15 00:54:20;;;;;;;;;1.00;1.00;;;;;;;;5119053;27;45500;-43
2023/07/15 00:56:46;;;;;;;;;1.80;1.60;;;;;;;;5118670;27;45667;-42
2023/07/15 00:59:12;;;;;;;;;1.20;1.00;;;;;;;;5118586;27;45382;-46
2023/07/15 01:01:38;;;;;;;;;2.40;1.80;;;;;;;;5118707;27;45461;-41
2023/07/15 01:04:03;;;;;;;;;1.75;1.75;;;;;;;;5119009;27;45381;-42
2023/07/15 01:06:29;;;;;;;;;2.25;0.75;;;;;;;;5118496;27;45320;-42
2023/07/15 01:08:54;;;;;;;;;2.00;2.00;;;;;;;;5118611;27;45295;-42
2023/07/15 01:11:19;;;;;;;;;3.00;1.00;;;;;;;;5118733;27;45401;-42
2023/07/15 01:13:45;;;;;;;;;1.00;1.00;;;;;;;;5118723;27;45272;-42
2023/07/15 01:16:10;;;;;;;;;2.00;2.00;;;;;;;;5118369;27;45343;-47
2023/07/15 01:18:35;;;;;;;;;1.00;1.00;;;;;;;;5118489;27;45430;-42
2023/07/15 01:21:01;;;;;;;;;3.75;1.75;;;;;;;;5118882;27;45504;-43
2023/07/15 01:23:27;;;;;;;;;2.00;2.00;;;;;;;;5119052;27;45211;-43
2023/07/15 01:25:52;;;;;;;;;2.40;1.00;;;;;;;;5118241;27;46249;-42
2023/07/15 01:28:18;;;;;;;;;1.00;1.00;;;;;;;;5118944;27;45451;-42
2023/07/15 01:30:43;;;;;;;;;1.25;0.00;;;;;;;;5118241;27;45479;-42
2023/07/15 01:33:09;;;;;;;;;1.00;1.00;;;;;;;;5118752;27;45445;-43
2023/07/15 01:35:34;;;;;;;;;1.75;1.75;;;;;;;;5118177;27;46296;-42
2023/07/15 01:37:59;;;;;;;;;1.00;1.00;;;;;;;;5117946;27;45167;-42
2023/07/15 01:40:25;;;;;;;;;2.00;0.25;;;;;;;;5118466;27;45265;-45
2023/07/15 01:42:50;;;;;;;;;0.75;0.75;;;;;;;;5119188;27;45477;-41
2023/07/15 01:45:15;;;;;;;;;0.75;0.75;;;;;;;;5121844;27;45428;-41
2023/07/15 01:47:41;;;;;;;;;0.50;0.25;;;;;;;;5121828;27;45367;-42
2023/07/15 01:50:06;;;;;;;;;1.50;0.75;;;;;;;;5121908;27;45313;-42
2023/07/15 01:52:31;;;;;;;;;5.25;2.00;;;;;;;;5121957;27;45254;-42
2023/07/15 01:54:57;;;;;;;;;3.00;2.00;;;;;;;;5121612;27;45314;-42
2023/07/15 01:57:22;;;;;;;;;2.75;2.75;;;;;;;;5121624;27;45310;-42
2023/07/15 01:59:47;;;;;;;;;3.50;2.75;;;;;;;;5121549;27;45361;-42
2023/07/15 02:02:13;;;;;;;;;1.75;1.25;;;;;;;;5121767;27;45465;-42
2023/07/15 02:04:38;;;;;;;;;1.50;1.50;;;;;;;;5121453;27;46947;-42
2023/07/15 02:07:03;;;;;;;;;1.75;1.75;;;;;;;;5121435;27;45247;-42
2023/07/15 02:09:29;;;;;;;;;2.00;0.25;;;;;;;;5121677;27;45358;-43
2023/07/15 02:11:54;;;;;;;;;1.00;1.00;;;;;;;;5121656;27;45476;-43
2023/07/15 02:14:20;;;;;;;;;1.75;1.00;;;;;;;;5121509;27;45962;-42
2023/07/15 02:16:45;;;;;;;;;2.25;1.00;;;;;;;;5121404;27;45301;-45
2023/07/15 02:19:10;;;;;;;;;0.50;0.50;;;;;;;;5121376;27;45337;-41
2023/07/15 02:21:35;;;;;;;;;1.50;1.50;;;;;;;;5121570;27;45238;-43
2023/07/15 02:24:01;;;;;;;;;1.00;1.00;;;;;;;;5121180;27;45963;-42
2023/07/15 02:26:27;;;;;;;;;0.80;0.80;;;;;;;;5121085;27;45370;-41
2023/07/15 02:28:53;;;;;;;;;1.00;1.00;;;;;;;;5121222;27;45244;-42
2023/07/15 02:31:18;;;;;;;;;3.50;3.25;;;;;;;;5121172;27;45711;-42
2023/07/15 02:33:44;;;;;;;;;4.75;4.00;;;;;;;;5120859;27;46304;-42
2023/07/15 02:36:09;;;;;;;;;5.00;5.00;;;;;;;;5120897;27;45372;-42
2023/07/15 02:38:35;;;;;;;;;7.50;5.75;;;;;;;;5121066;27;45265;-42
2023/07/15 02:41:00;;;;;;;;;9.00;4.50;;;;;;;;5121410;27;45353;-41
2023/07/15 02:43:25;;;;;;;;;6.00;3.75;;;;;;;;5120959;27;46162;-41
2023/07/15 02:45:50;;;;;;;;;4.00;2.50;;;;;;;;5120092;27;45289;-41
2023/07/15 02:48:16;;;;;;;;;2.00;2.00;;;;;;;;5121014;27;45521;-44
2023/07/15 02:50:41;;;;;;;;;6.00;2.25;;;;;;;;5121003;27;45404;-41
2023/07/15 02:53:06;;;;;;;;;0.25;0.25;;;;;;;;5120869;27;45412;-43
2023/07/15 02:55:31;;;;;;;;;1.00;1.00;;;;;;;;5120179;27;45485;-43
2023/07/15 02:57:56;;;;;;;;;2.00;2.00;;;;;;;;5120737;27;45332;-42
2023/07/15 03:00:22;;;;;;;;;1.25;1.25;;;;;;;;5120921;27;45373;-42
2023/07/15 03:02:47;;;;;;;;;1.50;0.50;;;;;;;;5120453;27;46144;-43
2023/07/15 03:05:13;;;;;;;;;1.00;1.00;;;;;;;;5120651;27;45424;-45
2023/07/15 03:07:43;;;;;;;;;0.00;0.00;;;;;;;;5120560;27;45416;-43
2023/07/15 03:10:09;;;;;;;;;0.80;0.80;;;;;;;;5120747;27;45159;-43
2023/07/15 03:12:34;;;;;;;;;2.00;1.50;;;;;;;;5120206;27;45949;-43
2023/07/15 03:14:59;;;;;;;;;2.00;0.75;;;;;;;;5120251;27;45289;-42
2023/07/15 03:17:24;;;;;;;;;0.50;0.50;;;;;;;;5120564;27;45311;-41
2023/07/15 03:19:49;;;;;;;;;1.00;1.00;;;;;;;;5120507;27;45206;-42
2023/07/15 03:22:15;;;;;;;;;0.75;0.75;;;;;;;;5120315;27;45404;-45
2023/07/15 03:24:40;;;;;;;;;1.75;0.75;;;;;;;;5120454;27;45344;-42
2023/07/15 03:27:05;;;;;;;;;2.00;0.00;;;;;;;;5120458;27;45274;-43
2023/07/15 03:29:30;;;;;;;;;0.75;0.75;;;;;;;;5120659;27;45156;-40
2023/07/15 03:31:56;;;;;;;;;1.00;1.00;;;;;;;;5119853;27;46952;-43
2023/07/15 03:34:21;;;;;;;;;1.75;1.00;;;;;;;;5120421;27;45420;-42
2023/07/15 03:36:46;;;;;;;;;3.00;2.25;;;;;;;;5120322;27;45250;-42
2023/07/15 03:39:11;;;;;;;;;3.00;0.50;;;;;;;;5120321;27;45387;-42
2023/07/15 03:41:37;;;;;;;;;0.75;0.75;;;;;;;;5119971;27;45305;-43
2023/07/15 03:44:03;;;;;;;;;1.00;1.00;;;;;;;;5119904;27;45435;-42
2023/07/15 03:46:28;;;;;;;;;0.40;0.40;;;;;;;;5120114;27;45380;-43
2023/07/15 03:48:53;;;;;;;;;0.50;0.25;;;;;;;;5120224;27;45243;-42
2023/07/15 03:51:19;;;;;;;;;2.50;1.00;;;;;;;;5119602;27;45313;-43
2023/07/15 03:53:44;;;;;;;;;2.25;1.25;;;;;;;;5119669;27;45434;-44
2023/07/15 03:56:09;;;;;;;;;1.00;1.00;;;;;;;;5101261;27;45557;-43
2023/07/15 03:58:34;;;;;;;;;0.75;0.75;;;;;;;;5120072;27;45407;-42
2023/07/15 04:00:59;;;;;;;;;0.50;0.50;;;;;;;;5119563;27;47211;-42
2023/07/15 04:03:25;;;;;;;;;0.00;0.00;;;;;;;;5119686;27;45301;-43
2023/07/15 04:05:50;;;;;;;;;4.00;0.75;;;;;;;;5118935;27;45360;-42
2023/07/15 04:08:15;;;;;;;;;0.50;0.50;;;;;;;;5101332;27;45606;-42
2023/07/15 04:10:40;;;;;;;;;0.00;0.00;;;;;;;;5119530;27;46962;-43
2023/07/15 04:13:05;;;;;;;;;0.00;0.00;;;;;;;;5119615;27;45322;-41
2023/07/15 04:15:31;;;;;;;;;0.75;0.75;;;;;;;;5119590;27;45257;-43
2023/07/15 04:17:56;;;;;;;;;0.25;0.25;;;;;;;;5119808;27;45331;-43
2023/07/15 04:20:21;;;;;;;;;1.50;1.50;;;;;;;;5119216;27;46238;-43
2023/07/15 04:22:46;;;;;;;;;2.00;1.00;;;;;;;;5119373;27;45278;-43
2023/07/15 04:25:12;;;;;;;;;1.75;1.00;;;;;;;;5119412;27;45431;-43
2023/07/15 04:27:38;;;;;;;;;1.50;0.00;;;;;;;;5118439;27;45359;-44
2023/07/15 04:30:03;;;;;;;;;0.40;0.40;;;;;;;;5119130;27;47053;-43
2023/07/15 04:32:28;;;;;;;;;1.00;0.00;;;;;;;;5118875;27;45257;-42
2023/07/15 04:34:53;;;;;;;;;2.25;1.00;;;;;;;;5119404;27;45210;-43
2023/07/15 04:37:20;;;;;;;;;1.00;0.50;;;;;;;;5119397;27;45246;-44
2023/07/15 04:39:45;;;;;;;;;2.60;1.00;;;;;;;;5118829;27;47201;-42
2023/07/15 04:42:10;;;;;;;;;0.00;0.00;;;;;;;;5119072;27;45420;-41
2023/07/15 04:44:36;;;;;;;;;1.00;1.00;;;;;;;;5119100;27;45433;-44
2023/07/15 04:47:01;;;;;;;;;0.00;0.00;;;;;;;;5119327;27;45465;-42
2023/07/15 04:49:27;;;;;;;;;0.00;0.00;;;;;;;;5118743;27;45717;-42
2023/07/15 04:51:52;;;;;;;;;0.00;0.00;;;;;;;;5118905;27;45411;-42
2023/07/15 04:54:18;;;;;;;;;1.75;1.75;;;;;;;;5118922;27;45329;-42
2023/07/15 04:56:43;;;;;;;;;2.50;2.25;;;;;;;;5119171;27;45406;-44
2023/07/15 04:59:08;;;;;;;;;0.00;0.00;;;;;;;;5118547;27;47504;-43
2023/07/15 05:01:33;;;;;;;;;2.50;0.75;;;;;;;;5118499;27;45285;-42
2023/07/15 05:04:01;;;;;;;;;2.00;1.00;;;;;;;;5118973;27;45817;-40
2023/07/15 05:06:27;;;;;;;;;0.40;0.40;;;;;;;;5119077;27;45467;-44
2023/07/15 05:08:52;;;;;;;;;2.00;0.00;;;;;;;;5118757;27;46033;-43
2023/07/15 05:11:19;;;;;;;;;0.75;0.75;;;;;;;;5119300;27;45376;-42
2023/07/15 05:13:44;;;;;;;;;2.00;1.00;;;;;;;;5119225;27;45369;-43
2023/07/15 05:16:09;;;;;;;;;0.75;0.75;;;;;;;;5119304;27;45342;-42
2023/07/15 05:18:35;;;;;;;;;1.00;1.00;;;;;;;;5118385;27;45951;-43
2023/07/15 05:21:00;;;;;;;;;1.25;0.25;;;;;;;;5118551;27;45490;-42
2023/07/15 05:23:28;;;;;;;;;0.50;0.50;;;;;;;;5117878;27;45198;-43
2023/07/15 05:25:55;;;;;;;;;1.00;1.00;;;;;;;;5118664;27;45344;-44
2023/07/15 05:28:20;;;;;;;;;2.00;1.60;;;;;;;;5118065;27;46908;-41
2023/07/15 05:30:45;;;;;;;;;0.00;0.00;;;;;;;;5118310;27;45452;-43
2023/07/15 05:33:10;;;;;;;;;2.75;1.50;;;;;;;;5118335;27;45309;-43
2023/07/15 05:35:35;;;;;;;;;0.50;0.50;;;;;;;;5118615;27;45388;-42
2023/07/15 05:38:01;;;;;;;;;2.25;0.25;;;;;;;;5117400;27;46451;-43
2023/07/15 05:40:26;;;;;;;;;0.75;0.75;;;;;;;;5118353;27;45239;-43
2023/07/15 05:42:51;;;;;;;;;0.75;0.75;;;;;;;;5117801;27;45214;-42
2023/07/15 05:45:16;;;;;;;;;0.75;0.75;;;;;;;;5118272;27;45477;-44
2023/07/15 05:47:42;;;;;;;;;1.00;1.00;;;;;;;;5118052;27;45328;-42
2023/07/15 05:50:08;;;;;;;;;1.00;1.00;;;;;;;;5117977;27;45234;-42
2023/07/15 05:52:33;;;;;;;;;0.60;0.60;;;;;;;;5118109;27;45279;-42
2023/07/15 05:54:58;;;;;;;;;1.25;0.25;;;;;;;;5118375;27;45509;-41
2023/07/15 05:57:24;;;;;;;;;0.25;0.25;;;;;;;;5117876;27;46067;-41
2023/07/15 05:59:49;;;;;;;;;1.25;1.25;;;;;;;;5118011;27;45301;-41
2023/07/15 06:02:14;;;;;;;;;1.00;1.00;;;;;;;;5117887;27;45358;-41
2023/07/15 06:04:39;;;;;;;;;1.25;1.25;;;;;;;;5118378;27;45312;-42
2023/07/15 06:07:04;;;;;;;;;2.25;1.75;;;;;;;;5118000;27;45409;-41
2023/07/15 06:09:30;;;;;;;;;0.00;0.00;;;;;;;;5117766;27;45522;-41
2023/07/15 06:11:55;;;;;;;;;1.50;0.00;;;;;;;;5118138;27;45385;-40
2023/07/15 06:14:20;;;;;;;;;2.25;0.25;;;;;;;;5118321;27;45436;-41
2023/07/15 06:16:46;;;;;;;;;1.00;1.00;;;;;;;;5117478;27;46043;-42
2023/07/15 06:19:11;;;;;;;;;0.25;0.25;;;;;;;;5117606;27;45408;-42
2023/07/15 06:21:36;;;;;;;;;2.50;0.25;;;;;;;;5117979;27;45597;-43
2023/07/15 06:24:02;;;;;;;;;0.75;0.75;;;;;;;;5118080;27;45537;-43
2023/07/15 06:26:27;;;;;;;;;2.25;1.00;;;;;;;;5117629;27;46070;-42
2023/07/15 06:28:52;;;;;;;;;2.50;0.50;;;;;;;;5118493;27;45422;-43
2023/07/15 06:31:17;;;;;;;;;3.25;2.25;;;;;;;;5120271;27;45323;-45
2023/07/15 06:33:44;;;;;;;;;2.25;1.25;;;;;;;;5121370;27;45298;-43
2023/07/15 06:36:10;;;;;;;;;1.40;1.00;;;;;;;;5121049;27;46183;-44
2023/07/15 06:38:35;;;;;;;;;2.00;1.00;;;;;;;;5119579;27;45329;-44
2023/07/15 06:41:00;;;;;;;;;1.50;0.50;;;;;;;;5121220;27;45427;-43
2023/07/15 06:43:26;;;;;;;;;1.50;1.00;;;;;;;;5120915;27;45228;-43
2023/07/15 06:45:51;;;;;;;;;2.00;2.00;;;;;;;;5120864;27;45444;-45
2023/07/15 06:48:19;;;;;;;;;1.00;1.00;;;;;;;;5120773;27;45424;-44
2023/07/15 06:50:44;;;;;;;;;1.80;1.80;;;;;;;;5121012;27;45253;-40
2023/07/15 06:53:10;;;;;;;;;3.00;2.00;;;;;;;;5121055;27;45334;-43
2023/07/15 06:55:35;;;;;;;;;2.25;1.00;;;;;;;;5120809;27;46308;-42
2023/07/15 06:58:01;;;;;;;;;1.75;1.75;;;;;;;;5120697;27;45201;-45
2023/07/15 07:00:27;;;;;;;;;2.00;2.00;;;;;;;;5121073;27;45353;-42
2023/07/15 07:02:52;;;;;;;;;1.25;0.25;;;;;;;;5121311;27;45439;-44
2023/07/15 07:05:19;;;;;;;;;2.25;1.25;;;;;;;;5120819;27;46262;-42
2023/07/15 07:07:44;;;;;;;;;3.00;2.00;;;;;;;;5120441;27;46057;-41
2023/07/15 07:10:10;;;;;;;;;3.00;2.00;;;;;;;;5120592;27;45332;-44
2023/07/15 07:12:35;;;;;;;;;2.00;2.00;;;;;;;;5120820;27;45331;-42
2023/07/15 07:15:00;;;;;;;;;1.50;1.50;;;;;;;;5120487;27;45419;-42
2023/07/15 07:17:25;;;;;;;;;3.25;1.00;;;;;;;;5120510;27;45522;-42
2023/07/15 07:19:51;;;;;;;;;1.50;1.50;;;;;;;;5120469;27;45276;-44
2023/07/15 07:22:16;;;;;;;;;3.75;1.25;;;;;;;;5120896;27;45259;-41
2023/07/15 07:24:41;;;;;;;;;1.50;1.00;;;;;;;;5120434;27;46005;-42
2023/07/15 07:27:06;;;;;;;;;2.00;2.00;;;;;;;;5120248;27;45256;-44
2023/07/15 07:29:31;;;;;;;;;2.00;0.75;;;;;;;;5120613;27;45312;-43
2023/07/15 07:31:57;;;;;;;;;4.75;2.00;;;;;;;;5120237;27;45366;-41
2023/07/15 07:34:22;;;;;;;;;1.50;1.50;;;;;;;;5101587;27;46213;-41
2023/07/15 07:36:47;;;;;;;;;1.00;1.00;;;;;;;;5120353;27;45441;-41
2023/07/15 07:39:15;;;;;;;;;0.50;0.50;;;;;;;;5119975;27;45516;-40
2023/07/15 07:41:41;;;;;;;;;3.00;0.00;;;;;;;;5099233;27;45611;-42
2023/07/15 07:44:06;;;;;;;;;0.75;0.75;;;;;;;;5099438;27;45310;-42
2023/07/15 07:46:31;;;;;;;;;3.00;1.00;;;;;;;;5099696;27;45556;-43
2023/07/15 07:48:57;;;;;;;;;0.00;0.00;;;;;;;;5099564;27;45446;-45
2023/07/15 07:51:22;;;;;;;;;2.50;1.00;;;;;;;;5099395;27;45430;-45
2023/07/15 07:53:47;;;;;;;;;1.00;0.00;;;;;;;;5099537;27;46012;-41
2023/07/15 07:56:12;;;;;;;;;1.25;1.25;;;;;;;;5099333;27;45395;-40
2023/07/15 07:58:38;;;;;;;;;0.50;0.50;;;;;;;;5099256;27;45713;-40
2023/07/15 08:01:03;;;;;;;;;0.00;0.00;;;;;;;;5099511;27;45384;-43
2023/07/15 08:03:29;;;;;;;;;2.50;1.00;;;;;;;;5098925;27;45432;-43
2023/07/15 08:05:54;;;;;;;;;1.00;1.00;;;;;;;;5099191;27;45448;-42
2023/07/15 08:08:19;;;;;;;;;3.00;1.00;;;;;;;;5098818;27;45402;-42
2023/07/15 08:10:44;;;;;;;;;3.00;0.25;;;;;;;;5099327;27;45800;-43
2023/07/15 08:13:10;;;;;;;;;1.00;1.00;;;;;;;;5099272;27;46158;-43
2023/07/15 08:15:35;;;;;;;;;2.00;1.50;;;;;;;;5099057;27;45358;-42
2023/07/15 08:18:01;;;;;;;;;1.50;0.75;;;;;;;;5098366;27;45438;-47
2023/07/15 08:20:26;;;;;;;;;2.00;2.00;;;;;;;;5098402;27;45466;-44
2023/07/15 08:22:51;;;;;;;;;1.75;0.75;;;;;;;;5098324;27;46098;-44
2023/07/15 08:25:16;;;;;;;;;1.50;1.25;;;;;;;;5098422;27;45464;-42
2023/07/15 08:27:42;;;;;;;;;1.75;1.75;;;;;;;;5098419;27;45470;-42
2023/07/15 08:30:07;;;;;;;;;1.25;1.25;;;;;;;;5098133;27;45498;-44
2023/07/15 08:32:33;;;;;;;;;1.25;1.25;;;;;;;;5097595;27;45518;-42
2023/07/15 08:34:59;;;;;;;;;2.75;0.75;;;;;;;;5097908;27;45503;-42
2023/07/15 08:37:25;;;;;;;;;2.00;1.00;;;;;;;;5098920;27;45339;-43
2023/07/15 08:39:52;;;;;;;;;2.00;2.00;;;;;;;;5080476;27;45357;-44
2023/07/15 08:42:19;;;;;;;;;4.00;1.75;;;;;;;;5098840;27;45610;-42
2023/07/15 08:44:44;;;;;;;;;1.20;1.00;;;;;;;;5098473;27;45368;-42
2023/07/15 08:47:11;;;;;;;;;2.50;2.00;;;;;;;;5098035;27;45396;-42
2023/07/15 08:49:38;;;;;;;;;2.20;2.20;;;;;;;;5099007;27;45553;-43
2023/07/15 08:52:04;;;;;;;;;3.40;2.80;;;;;;;;5098052;27;45384;-41
2023/07/15 08:54:30;;;;;;;;;3.60;3.20;;;;;;;;5098578;27;45222;-41
2023/07/15 08:56:55;;;;;;;;;3.40;1.40;;;;;;;;5098472;27;45230;-42
2023/07/15 08:59:21;;;;;;;;;1.25;1.00;;;;;;;;5098582;27;45305;-41
2023/07/15 09:01:46;;;;;;;;;2.75;2.75;;;;;;;;5098324;27;46230;-42
2023/07/15 09:04:11;;;;;;;;;4.00;3.00;;;;;;;;5098005;27;45461;-44
2023/07/15 09:06:36;;;;;;;;;2.00;1.25;;;;;;;;5098747;27;45231;-41
2023/07/15 09:09:02;;;;;;;;;2.75;2.00;;;;;;;;5098583;27;45369;-42
2023/07/15 09:11:40;;;;;;;;;1.50;0.00;;;;;;;;5098198;27;46153;-44
2023/07/15 09:14:12;;;;;;;;;0.80;0.80;;;;;;;;5098167;27;45374;-43
2023/07/15 09:16:38;;;;;;;;;1.80;1.80;;;;;;;;5098212;27;45364;-41
2023/07/15 09:19:04;;;;;;;;;3.00;2.25;;;;;;;;5098322;27;45364;-43
2023/07/15 09:21:29;;;;;;;;;2.25;2.00;;;;;;;;5098104;27;46144;-45
2023/07/15 09:23:59;;;;;;;;;2.00;1.50;;;;;;;;5098104;27;45255;-42
2023/07/15 09:26:25;;;;;;;;;3.80;1.60;;;;;;;;5097995;27;45285;-44
2023/07/15 09:28:50;;;;;;;;;0.75;0.75;;;;;;;;5098458;27;45250;-44
2023/07/15 09:31:24;;;;;;;;;1.25;1.00;;;;;;;;5097258;27;46113;-42
2023/07/15 09:33:49;;;;;;;;;4.20;1.20;;;;;;;;5097816;27;45436;-44
2023/07/15 09:36:15;;;;;;;;;3.25;2.75;;;;;;;;5097874;27;45207;-42
2023/07/15 09:38:41;;;;;;;;;1.75;1.75;;;;;;;;5097984;27;45374;-42
2023/07/15 09:41:08;;;;;;;;;1.00;1.00;;;;;;;;5097712;27;46280;-42
2023/07/15 09:43:44;;;;;;;;;1.40;1.40;;;;;;;;5097665;27;45496;-43
2023/07/15 09:46:10;;;;;;;;;2.80;1.60;;;;;;;;5097843;27;45322;-42
2023/07/15 09:48:35;;;;;;;;;4.00;2.50;;;;;;;;5097949;27;45428;-41
2023/07/15 09:51:00;;;;;;;;;4.25;2.00;;;;;;;;5097209;27;46499;-42
2023/07/15 09:53:26;;;;;;;;;5.25;4.00;;;;;;;;5097667;27;45401;-43
2023/07/15 09:55:52;;;;;;;;;3.40;2.40;;;;;;;;5097873;27;45329;-42
2023/07/15 09:58:24;;;;;;;;;3.00;2.25;;;;;;;;5098017;27;45321;-42
2023/07/15 10:00:51;;;;;;;;;1.00;0.00;;;;;;;;5097523;27;46251;-43
2023/07/15 10:03:22;;;;;;;;;3.80;3.00;;;;;;;;5097374;27;45421;-42
2023/07/15 10:05:48;;;;;;;;;2.80;1.00;;;;;;;;5101072;27;45354;-42
2023/07/15 10:08:14;;;;;;;;;1.80;0.00;;;;;;;;5101570;27;45386;-44
2023/07/15 10:10:40;;;;;;;;;1.50;1.00;;;;;;;;5100961;27;46562;-44
2023/07/15 10:13:05;;;;;;;;;2.00;2.00;;;;;;;;5101118;27;45425;-45
2023/07/15 10:15:31;;;;;;;;;2.00;1.00;;;;;;;;5101101;27;45365;-43
2023/07/15 10:17:56;;;;;;;;;2.00;2.00;;;;;;;;5101323;27;45326;-44
2023/07/15 10:20:22;;;;;;;;;3.00;1.75;;;;;;;;5100749;27;46944;-44
2023/07/15 10:22:49;;;;;;;;;0.60;0.20;;;;;;;;5100391;27;45404;-42
2023/07/15 10:25:15;;;;;;;;;3.40;2.00;;;;;;;;5101053;27;45376;-44
2023/07/15 10:27:41;;;;;;;;;1.80;1.80;;;;;;;;5099954;27;45381;-42
2023/07/15 10:30:16;;;;;;;;;1.00;1.00;;;;;;;;5100039;27;46226;-45
2023/07/15 10:33:08;;;;;;;;;0.40;0.40;;;;;;;;5100814;27;45405;-45
2023/07/15 10:35:46;;;;;;;;;2.20;0.60;;;;;;;;5100662;27;45442;-43
2023/07/15 10:38:21;;;;;;;;;3.20;2.00;;;;;;;;5100951;27;45453;-45
2023/07/15 10:40:46;;;;;;;;;0.00;0.00;;;;;;;;5099977;27;47046;-43
2023/07/15 10:43:12;;;;;;;;;2.25;2.00;;;;;;;;5100576;27;45416;-44
2023/07/15 10:45:43;;;;;;;;;0.00;0.00;;;;;;;;5100763;27;45365;-44
2023/07/15 10:48:10;;;;;;;;;1.00;1.00;;;;;;;;5100585;27;45210;-44
2023/07/15 10:50:38;;;;;;;;;3.00;1.00;;;;;;;;5099998;27;45348;-43
2023/07/15 10:53:20;;;;;;;;;2.60;1.60;;;;;;;;5100304;27;45346;-43
2023/07/15 10:55:45;;;;;;;;;1.60;1.60;;;;;;;;5100345;27;45294;-43
2023/07/15 10:58:10;;;;;;;;;2.50;1.25;;;;;;;;5100607;27;45230;-43
2023/07/15 11:00:37;;;;;;;;;3.00;3.00;;;;;;;;5099664;27;46208;-43
2023/07/15 11:03:04;;;;;;;;;1.40;1.20;;;;;;;;5100223;27;45458;-41
2023/07/15 11:05:30;;;;;;;;;4.80;1.00;;;;;;;;5100016;27;45542;-42
2023/07/15 11:07:55;;;;;;;;;1.00;1.00;;;;;;;;5100576;27;45247;-43
2023/07/15 11:10:30;;;;;;;;;4.25;2.50;;;;;;;;5099903;27;45976;-44
2023/07/15 11:12:56;;;;;;;;;1.80;1.80;;;;;;;;5099787;27;45547;-42
2023/07/15 11:15:21;;;;;;;;;1.00;1.00;;;;;;;;5099662;27;45349;-43
2023/07/15 11:17:46;;;;;;;;;3.25;1.75;;;;;;;;5099837;27;45307;-42
2023/07/15 11:20:12;;;;;;;;;3.25;3.00;;;;;;;;5099616;27;45402;-42
2023/07/15 11:22:37;;;;;;;;;2.00;0.75;;;;;;;;5099747;27;45376;-42
2023/07/15 11:25:02;;;;;;;;;6.00;4.00;;;;;;;;5100002;27;45319;-46
2023/07/15 11:27:27;;;;;;;;;2.50;2.50;;;;;;;;5100195;27;45314;-44
2023/07/15 11:29:56;;;;;;;;;2.00;2.00;;;;;;;;5099567;27;46158;-43
2023/07/15 11:32:21;;;;;;;;;4.00;2.60;;;;;;;;5099110;27;45444;-43
2023/07/15 11:34:46;;;;;;;;;2.50;1.00;;;;;;;;5099635;27;45290;-45
2023/07/15 11:37:12;;;;;;;;;2.75;2.50;;;;;;;;5099592;27;45496;-44
2023/07/15 11:39:40;;;;;;;;;2.00;2.00;;;;;;;;5098901;27;46606;-42
2023/07/15 11:42:07;;;;;;;;;2.20;2.20;;;;;;;;5098873;27;45534;-41
2023/07/15 11:44:35;;;;;;;;;0.00;0.00;;;;;;;;5099513;27;45378;-42
2023/07/15 11:47:01;;;;;;;;;2.00;2.00;;;;;;;;5099585;27;45358;-46
2023/07/15 11:49:26;;;;;;;;;2.50;2.00;;;;;;;;5099164;27;46187;-42
2023/07/15 11:51:54;;;;;;;;;2.50;2.50;;;;;;;;5099476;27;45408;-43
2023/07/15 11:54:19;;;;;;;;;3.20;2.20;;;;;;;;5099321;27;45343;-46
2023/07/15 11:56:46;;;;;;;;;4.00;2.75;;;;;;;;5099391;27;45332;-44
2023/07/15 11:59:12;;;;;;;;;4.00;2.20;;;;;;;;5098950;27;45423;-42
2023/07/15 12:01:38;;;;;;;;;2.60;2.60;;;;;;;;5099042;27;45392;-42
2023/07/15 12:04:16;;;;;;;;;3.00;1.80;;;;;;;;5098810;27;45422;-43
2023/07/15 12:06:53;;;;;;;;;2.00;1.00;;;;;;;;5099410;27;45409;-44
2023/07/15 12:09:19;;;;;;;;;2.00;2.00;;;;;;;;5098928;27;46019;-44
2023/07/15 12:11:45;;;;;;;;;1.00;1.00;;;;;;;;5098974;27;45330;-44
2023/07/15 12:14:11;;;;;;;;;3.25;1.75;;;;;;;;5098796;27;45367;-43
2023/07/15 12:16:38;;;;;;;;;1.00;1.00;;;;;;;;5099456;27;45305;-44
2023/07/15 12:19:04;;;;;;;;;2.40;2.40;;;;;;;;5098881;27;46036;-43
2023/07/15 12:21:30;;;;;;;;;2.75;2.00;;;;;;;;5098920;27;45351;-45
2023/07/15 12:23:56;;;;;;;;;3.80;3.40;;;;;;;;5099125;27;45199;-45
2023/07/15 12:26:21;;;;;;;;;4.00;2.75;;;;;;;;5097827;27;45390;-45
2023/07/15 12:28:46;;;;;;;;;5.00;2.75;;;;;;;;5098463;27;45457;-44
2023/07/15 12:31:13;;;;;;;;;2.00;2.00;;;;;;;;5098763;27;45376;-42
2023/07/15 12:33:38;;;;;;;;;3.80;1.00;;;;;;;;5099086;27;45448;-44
2023/07/15 12:36:04;;;;;;;;;4.75;2.00;;;;;;;;5099045;27;45202;-41
2023/07/15 12:38:29;;;;;;;;;2.00;2.00;;;;;;;;5099028;27;45341;-44
2023/07/15 12:40:54;;;;;;;;;0.00;0.00;;;;;;;;5098750;27;45317;-42
2023/07/15 12:43:20;;;;;;;;;0.50;0.50;;;;;;;;5098864;27;45441;-42
2023/07/15 12:45:46;;;;;;;;;0.75;0.75;;;;;;;;5098982;27;45309;-43
2023/07/15 12:48:11;;;;;;;;;3.00;1.60;;;;;;;;5098305;27;46588;-43
2023/07/15 12:50:37;;;;;;;;;2.00;2.00;;;;;;;;5098002;27;45360;-42
2023/07/15 12:53:03;;;;;;;;;1.75;1.75;;;;;;;;5098690;27;45248;-41
2023/07/15 12:55:28;;;;;;;;;3.60;1.80;;;;;;;;5098478;27;45181;-41
2023/07/15 12:57:53;;;;;;;;;2.25;0.50;;;;;;;;5098230;27;46096;-44
2023/07/15 13:00:18;;;;;;;;;1.75;1.75;;;;;;;;5098247;27;45226;-41
2023/07/15 13:02:43;;;;;;;;;1.75;1.75;;;;;;;;5098556;27;45283;-44
2023/07/15 13:05:09;;;;;;;;;1.00;0.75;;;;;;;;5098577;27;45372;-40
2023/07/15 13:07:34;;;;;;;;;4.00;2.00;;;;;;;;5098103;27;46214;-43
2023/07/15 13:09:59;;;;;;;;;1.00;1.00;;;;;;;;5098705;27;45399;-42
2023/07/15 13:12:24;;;;;;;;;1.75;1.75;;;;;;;;5098133;27;45153;-42
2023/07/15 13:14:50;;;;;;;;;1.00;1.00;;;;;;;;5098571;27;45498;-43
2023/07/15 13:17:15;;;;;;;;;0.75;0.25;;;;;;;;5097347;27;45303;-42
2023/07/15 13:19:40;;;;;;;;;5.50;3.00;;;;;;;;5097885;27;45441;-43
2023/07/15 13:22:05;;;;;;;;;1.00;1.00;;;;;;;;5098011;27;45270;-43
2023/07/15 13:24:30;;;;;;;;;3.00;1.75;;;;;;;;5098444;27;45302;-44
2023/07/15 13:26:56;;;;;;;;;2.50;1.25;;;;;;;;5098018;27;45275;-43
2023/07/15 13:29:21;;;;;;;;;1.75;0.50;;;;;;;;5097792;27;45424;-44
2023/07/15 13:31:46;;;;;;;;;5.00;2.00;;;;;;;;5094482;27;45215;-45
2023/07/15 13:34:11;;;;;;;;;2.00;1.00;;;;;;;;5094949;27;45400;-43
2023/07/15 13:36:39;;;;;;;;;2.50;2.00;;;;;;;;5094577;27;46016;-43
2023/07/15 13:39:04;;;;;;;;;1.60;1.60;;;;;;;;5099783;27;45566;-42
2023/07/15 13:41:29;;;;;;;;;1.00;1.00;;;;;;;;5102320;27;45358;-42
2023/07/15 13:43:54;;;;;;;;;4.50;1.25;;;;;;;;5101918;27;45525;-43
2023/07/15 13:46:19;;;;;;;;;3.50;2.00;;;;;;;;5101407;27;46057;-43
2023/07/15 13:48:45;;;;;;;;;4.75;1.00;;;;;;;;5101634;27;45358;-43
2023/07/15 13:51:10;;;;;;;;;4.00;2.25;;;;;;;;5101608;27;45373;-43
2023/07/15 13:53:35;;;;;;;;;3.00;1.75;;;;;;;;5101397;27;46306;-43
2023/07/15 13:56:00;;;;;;;;;1.00;1.00;;;;;;;;5102094;27;46264;-44
2023/07/15 13:58:26;;;;;;;;;2.50;2.50;;;;;;;;5101356;27;45408;-43
2023/07/15 14:00:51;;;;;;;;;3.00;2.00;;;;;;;;5101725;27;45439;-44
2023/07/15 14:03:16;;;;;;;;;2.00;2.00;;;;;;;;5102027;27;45360;-44
2023/07/15 14:05:41;;;;;;;;;1.00;1.00;;;;;;;;5101479;27;46104;-43
2023/07/15 14:08:06;;;;;;;;;2.75;2.00;;;;;;;;5101542;27;46307;-43
2023/07/15 14:10:32;;;;;;;;;3.00;2.00;;;;;;;;5101962;27;45318;-44
2023/07/15 14:12:57;;;;;;;;;2.25;2.00;;;;;;;;5101861;27;45254;-43
2023/07/15 14:15:22;;;;;;;;;5.00;2.00;;;;;;;;5101386;27;45309;-45
2023/07/15 14:17:47;;;;;;;;;2.00;2.00;;;;;;;;5101192;27;45298;-44
2023/07/15 14:20:13;;;;;;;;;4.00;2.00;;;;;;;;5101583;27;45745;-43
2023/07/15 14:22:38;;;;;;;;;1.00;1.00;;;;;;;;5101343;27;45394;-43
2023/07/15 14:25:04;;;;;;;;;2.00;2.00;;;;;;;;5101438;27;45341;-43
2023/07/15 14:27:29;;;;;;;;;1.00;1.00;;;;;;;;5101893;27;45445;-42
2023/07/15 14:29:54;;;;;;;;;1.75;1.75;;;;;;;;5101243;27;45751;-42
2023/07/15 14:32:19;;;;;;;;;1.75;1.00;;;;;;;;5101357;27;45443;-42
2023/07/15 14:34:45;;;;;;;;;2.75;1.25;;;;;;;;5099701;27;46427;-43